createdAt,value
2022-08-05T00:00:16.107Z,60.57
2022-08-05T00:02:44.083Z,60.84
2022-08-05T00:06:01.594Z,60.68
2022-08-05T00:08:32.794Z,59.27
2022-08-05T00:10:56.199Z,59.11
2022-08-05T00:13:38.391Z,60.65
2022-08-05T00:16:08.434Z,60.15
2022-08-05T00:18:36.216Z,60.01
2022-08-05T00:21:06.899Z,60.47
2022-08-05T00:23:46.044Z,60.87
2022-08-05T00:26:20.630Z,61.55
2022-08-05T00:28:47.238Z,61.60
2022-08-05T00:31:16.028Z,61.18
2022-08-05T00:34:56.351Z,61.79
2022-08-05T00:37:09.017Z,61.37
2022-08-05T00:39:16.845Z,60.67
2022-08-05T00:41:51.838Z,61.40
2022-08-05T00:44:23.195Z,61.79
2022-08-05T00:47:04.056Z,61.08
2022-08-05T00:49:44.699Z,62.11
2022-08-05T00:52:17.923Z,62.63
2022-08-05T00:54:44.450Z,61.73
2022-08-05T00:57:11.069Z,62.18
2022-08-05T00:59:44.389Z,62.84
2022-08-05T01:02:11.352Z,63.21
2022-08-05T01:04:37.971Z,63.19
2022-08-05T01:07:08.943Z,64.34
2022-08-05T01:09:41.790Z,63.80
2022-08-05T01:12:18.195Z,60.31
2022-08-05T01:14:54.414Z,58.57
2022-08-05T01:17:31.835Z,56.38
2022-08-05T01:20:09.723Z,57.29
2022-08-05T01:22:59.541Z,56.24
2022-08-05T01:26:02.034Z,52.20
2022-08-05T01:28:39.365Z,53.29
2022-08-05T01:31:18.177Z,51.89
2022-08-05T01:34:05.372Z,53.95
2022-08-05T01:36:42.302Z,52.47
2022-08-05T01:39:15.818Z,53.16
2022-08-05T01:42:03.392Z,52.99
2022-08-05T01:44:34.195Z,53.82
2022-08-05T01:47:02.488Z,52.91
2022-08-05T01:50:00.092Z,54.55
2022-08-05T01:52:21.039Z,53.83
2022-08-05T01:54:58.848Z,56.02
2022-08-05T01:58:09.880Z,54.32
2022-08-05T02:00:19.810Z,54.66
2022-08-05T02:02:55.058Z,55.08
2022-08-05T02:05:24.934Z,56.03
2022-08-05T02:08:00.101Z,55.53
2022-08-05T02:10:34.696Z,57.40
2022-08-05T02:13:16.902Z,56.97
2022-08-05T02:15:47.546Z,55.98
2022-08-05T02:18:37.339Z,56.86
2022-08-05T02:21:21.904Z,57.23
2022-08-05T02:23:50.642Z,57.04
2022-08-05T02:26:22.300Z,58.96
2022-08-05T02:28:50.104Z,58.60
2022-08-05T02:31:24.527Z,60.17
2022-08-05T02:33:59.921Z,60.29
2022-08-05T02:36:27.920Z,61.08
2022-08-05T02:39:00.436Z,61.10
2022-08-05T02:41:28.604Z,61.68
2022-08-05T02:44:11.897Z,61.88
2022-08-05T02:46:43.877Z,61.41
2022-08-05T02:49:21.940Z,60.98
2022-08-05T02:52:02.967Z,61.77
2022-08-05T02:54:34.496Z,60.37
2022-08-05T02:57:10.266Z,60.84
2022-08-05T02:59:52.119Z,61.69
2022-08-05T03:02:20.742Z,62.25
2022-08-05T03:04:53.348Z,62.11
2022-08-05T03:08:00.073Z,61.65
2022-08-05T03:10:08.382Z,61.97
2022-08-05T03:12:37.315Z,63.21
2022-08-05T03:15:06.724Z,62.79
2022-08-05T03:17:41.695Z,62.88
2022-08-05T03:20:10.258Z,63.36
2022-08-05T03:22:37.095Z,62.21
2022-08-05T03:25:31.984Z,62.32
2022-08-05T03:27:59.401Z,61.34
2022-08-05T03:30:33.508Z,61.85
2022-08-05T03:33:04.021Z,62.06
2022-08-05T03:35:33.804Z,61.06
2022-08-05T03:38:01.129Z,61.78
2022-08-05T03:40:31.834Z,62.22
2022-08-05T03:43:15.959Z,62.14
2022-08-05T03:45:57.201Z,63.16
2022-08-05T03:48:26.641Z,63.64
2022-08-05T03:52:48.980Z,63.48
2022-08-05T03:55:51.688Z,62.88
2022-08-05T03:56:46.671Z,63.21
2022-08-05T03:59:29.148Z,63.28
2022-08-05T04:02:15.016Z,63.72
2022-08-05T04:04:44.898Z,64.31
2022-08-05T04:07:11.727Z,64.70
2022-08-05T04:09:53.434Z,64.93
2022-08-05T04:12:23.730Z,65.07
2022-08-05T04:14:51.507Z,64.69
2022-08-05T04:17:18.155Z,64.70
2022-08-05T04:19:46.753Z,64.33
2022-08-05T04:22:21.338Z,64.97
2022-08-05T04:24:52.603Z,64.73
2022-08-05T04:27:42.206Z,65.55
2022-08-05T04:30:08.720Z,65.14
2022-08-05T04:32:35.780Z,65.11
2022-08-05T04:35:03.950Z,65.05
2022-08-05T04:38:02.038Z,64.76
2022-08-05T04:40:19.786Z,64.83
2022-08-05T04:42:46.557Z,64.29
2022-08-05T04:45:23.058Z,63.89
2022-08-05T04:48:18.556Z,64.71
2022-08-05T04:51:03.365Z,64.54
2022-08-05T04:53:38.781Z,64.70
2022-08-05T04:56:33.837Z,64.19
2022-08-05T04:58:55.933Z,64.09
2022-08-05T05:01:33.465Z,63.94
2022-08-05T05:04:09.575Z,62.59
2022-08-05T05:06:44.521Z,63.58
2022-08-05T05:09:17.318Z,63.35
2022-08-05T05:11:54.571Z,62.76
2022-08-05T05:14:31.664Z,63.70
2022-08-05T05:17:03.298Z,62.79
2022-08-05T05:19:37.272Z,63.12
2022-08-05T05:22:23.406Z,63.23
2022-08-05T05:24:57.263Z,63.41
2022-08-05T05:27:25.247Z,62.87
2022-08-05T05:30:15.589Z,62.70
2022-08-05T05:32:56.092Z,62.83
2022-08-05T05:35:22.987Z,62.10
2022-08-05T05:38:00.285Z,62.07
2022-08-05T05:40:29.428Z,62.82
2022-08-05T05:42:56.790Z,62.43
2022-08-05T05:45:24.677Z,62.55
2022-08-05T05:48:06.724Z,61.97
2022-08-05T05:50:44.108Z,61.97
2022-08-05T05:53:22.571Z,61.46
2022-08-05T05:55:51.812Z,61.26
2022-08-05T05:58:31.681Z,60.20
2022-08-05T06:01:12.189Z,60.15
2022-08-05T06:03:53.659Z,60.37
2022-08-05T06:06:30.843Z,59.44
2022-08-05T06:08:58.598Z,59.06
2022-08-05T06:11:25.992Z,58.75
2022-08-05T06:13:54.265Z,58.03
2022-08-05T06:16:30.495Z,56.57
2022-08-05T06:19:01.087Z,56.73
2022-08-05T06:21:36.889Z,56.42
2022-08-05T06:24:11.813Z,56.44
2022-08-05T06:26:52.061Z,56.66
2022-08-05T06:29:25.221Z,55.27
2022-08-05T06:32:21.183Z,54.56
2022-08-05T06:34:53.482Z,55.37
2022-08-05T06:37:39.402Z,55.32
2022-08-05T06:40:07.748Z,54.49
2022-08-05T06:42:34.298Z,54.45
2022-08-05T06:45:06.457Z,54.88
2022-08-05T06:48:46.945Z,55.93
2022-08-05T06:50:21.967Z,54.98
2022-08-05T06:53:03.986Z,55.33
2022-08-05T06:55:36.412Z,54.62
2022-08-05T06:58:19.780Z,53.82
2022-08-05T07:00:47.175Z,53.29
2022-08-05T07:03:14.064Z,51.94
2022-08-05T07:05:43.520Z,51.21
2022-08-05T07:08:12.899Z,53.16
2022-08-05T07:10:52.345Z,53.25
2022-08-05T07:13:56.823Z,53.72
2022-08-05T07:17:56.846Z,54.32
2022-08-05T07:22:17.025Z,55.39
2022-08-05T07:24:43.763Z,54.94
2022-08-05T07:27:10.669Z,54.59
2022-08-05T07:30:28.132Z,54.58
2022-08-05T07:32:24.286Z,54.42
2022-08-05T07:34:57.947Z,52.83
2022-08-05T07:37:25.473Z,53.75
2022-08-05T07:40:26.706Z,52.86
2022-08-05T07:42:50.112Z,51.07
2022-08-05T07:45:16.676Z,50.89
2022-08-05T07:47:58.323Z,47.66
2022-08-05T07:50:29.015Z,49.24
2022-08-05T07:53:00.125Z,50.00
2022-08-05T07:56:05.184Z,51.35
2022-08-05T07:58:55.012Z,49.41
2022-08-05T08:01:00.108Z,51.26
2022-08-05T08:03:44.249Z,50.68
2022-08-05T08:06:11.485Z,50.77
2022-08-05T08:08:38.018Z,49.72
2022-08-05T08:11:04.565Z,50.40
2022-08-05T08:13:49.264Z,47.89
2022-08-05T08:16:49.977Z,45.40
2022-08-05T08:19:08.557Z,45.55
2022-08-05T08:21:55.130Z,45.55
2022-08-05T08:24:21.728Z,47.10
2022-08-05T08:27:08.364Z,43.72
2022-08-05T08:30:05.680Z,45.95
2022-08-05T08:32:27.885Z,43.71
2022-08-05T08:34:54.885Z,44.22
2022-08-05T08:37:28.024Z,51.11
2022-08-05T08:41:51.255Z,56.19
2022-08-05T08:45:23.125Z,50.10
2022-08-05T08:47:34.590Z,49.15
2022-08-05T08:50:05.937Z,48.93
2022-08-05T08:52:42.218Z,47.37
2022-08-05T08:55:14.236Z,47.56
2022-08-05T08:57:58.377Z,45.49
2022-08-05T09:00:25.582Z,45.06
2022-08-05T09:02:54.291Z,42.28
2022-08-05T09:05:38.733Z,43.09
2022-08-05T09:08:09.719Z,41.98
2022-08-05T09:10:36.538Z,44.32
2022-08-05T09:13:07.002Z,41.38
2022-08-05T09:15:37.190Z,40.21
2022-08-05T09:18:07.212Z,40.74
2022-08-05T09:20:38.083Z,40.89
2022-08-05T09:23:18.553Z,41.29
2022-08-05T09:26:01.097Z,39.72
2022-08-05T09:28:32.182Z,39.51
2022-08-05T09:31:18.166Z,42.08
2022-08-05T09:33:56.626Z,40.96
2022-08-05T09:36:27.566Z,39.66
2022-08-05T09:39:16.567Z,39.61
2022-08-05T09:42:04.644Z,40.19
2022-08-05T09:44:42.915Z,41.33
2022-08-05T09:47:12.660Z,38.64
2022-08-05T09:50:00.460Z,38.45
2022-08-05T09:52:35.723Z,37.89
2022-08-05T09:55:58.238Z,39.39
2022-08-05T09:57:54.539Z,44.81
2022-08-05T10:00:25.817Z,41.28
2022-08-05T10:02:58.677Z,39.13
2022-08-05T10:05:29.685Z,46.57
2022-08-05T10:08:35.289Z,44.02
2022-08-05T10:10:54.564Z,46.35
2022-08-05T10:13:45.593Z,41.51
2022-08-05T10:16:41.655Z,42.58
2022-08-05T10:19:11.642Z,42.23
2022-08-05T10:21:40.433Z,38.49
2022-08-05T10:24:12.972Z,41.19
2022-08-05T10:26:51.810Z,41.28
2022-08-05T10:29:24.128Z,40.25
2022-08-05T10:32:53.682Z,39.27
2022-08-05T10:34:58.189Z,42.09
2022-08-05T10:37:41.347Z,38.43
2022-08-05T10:40:20.392Z,37.44
2022-08-05T10:42:58.801Z,38.07
2022-08-05T10:45:39.778Z,39.90
2022-08-05T10:48:56.604Z,38.66
2022-08-05T10:51:28.946Z,40.05
2022-08-05T10:54:00.838Z,39.71
2022-08-05T10:56:45.637Z,37.29
2022-08-05T11:00:03.740Z,38.08
2022-08-05T11:02:14.521Z,38.33
2022-08-05T11:04:57.886Z,36.66
2022-08-05T11:07:33.074Z,37.18
2022-08-05T11:10:22.291Z,36.35
2022-08-05T11:12:55.903Z,37.12
2022-08-05T11:16:00.325Z,39.81
2022-08-05T11:18:25.774Z,40.08
2022-08-05T11:20:52.844Z,37.01
2022-08-05T11:24:03.948Z,37.47
2022-08-05T11:26:32.539Z,37.59
2022-08-05T11:29:06.868Z,38.14
2022-08-05T11:31:58.661Z,39.75
2022-08-05T11:34:52.215Z,38.11
2022-08-05T11:38:29.464Z,38.03
2022-08-05T11:41:14.153Z,36.86
2022-08-05T11:44:11.490Z,38.33
2022-08-05T11:47:09.829Z,37.55
2022-08-05T11:49:39.340Z,37.65
2022-08-05T11:52:11.761Z,36.97
2022-08-05T11:54:40.465Z,38.17
2022-08-05T11:57:25.287Z,37.37
2022-08-05T11:59:54.968Z,36.91
2022-08-05T12:02:30.047Z,36.84
2022-08-05T12:05:06.968Z,38.21
2022-08-05T12:08:08.420Z,36.10
2022-08-05T12:10:38.530Z,36.02
2022-08-05T12:13:28.130Z,36.83
2022-08-05T12:16:14.141Z,35.14
2022-08-05T12:18:42.652Z,36.61
2022-08-05T12:21:18.154Z,36.58
2022-08-05T12:24:32.635Z,37.35
2022-08-05T12:27:01.124Z,38.13
2022-08-05T12:29:38.750Z,38.43
2022-08-05T12:32:07.539Z,35.02
2022-08-05T12:34:37.445Z,35.32
2022-08-05T12:37:10.921Z,36.55
2022-08-05T12:39:51.382Z,34.20
2022-08-05T12:42:20.370Z,33.86
2022-08-05T12:44:47.509Z,35.31
2022-08-05T12:47:25.463Z,36.52
2022-08-05T12:50:03.753Z,36.44
2022-08-05T12:52:39.081Z,37.53
2022-08-05T12:55:25.070Z,36.53
2022-08-05T12:58:49.607Z,36.29
2022-08-05T13:02:02.434Z,37.81
2022-08-05T13:03:35.180Z,36.95
2022-08-05T13:06:11.610Z,34.51
2022-08-05T13:08:38.751Z,33.79
2022-08-05T13:11:07.812Z,34.97
2022-08-05T13:14:06.053Z,34.97
2022-08-05T13:16:24.947Z,35.50
2022-08-05T13:18:57.663Z,34.42
2022-08-05T13:21:27.691Z,33.95
2022-08-05T13:23:55.603Z,34.41
2022-08-05T13:26:27.209Z,33.47
2022-08-05T13:28:57.140Z,35.38
2022-08-05T13:31:34.125Z,32.81
2022-08-05T13:34:24.713Z,32.61
2022-08-05T13:36:52.747Z,34.41
2022-08-05T13:39:24.554Z,32.74
2022-08-05T13:42:06.748Z,33.47
2022-08-05T13:44:34.747Z,32.16
2022-08-05T13:47:08.670Z,33.96
2022-08-05T13:49:35.588Z,31.42
2022-08-05T13:52:13.340Z,35.60
2022-08-05T13:54:40.559Z,34.80
2022-08-05T13:57:09.537Z,34.28
2022-08-05T13:59:37.320Z,35.38
2022-08-05T14:02:26.489Z,35.28
2022-08-05T14:05:11.488Z,33.94
2022-08-05T14:08:00.389Z,36.84
2022-08-05T14:10:28.793Z,36.02
2022-08-05T14:12:57.221Z,35.31
2022-08-05T14:16:05.640Z,36.09
2022-08-05T14:18:14.961Z,34.35
2022-08-05T14:20:46.973Z,34.09
2022-08-05T14:23:23.822Z,33.90
2022-08-05T14:25:58.090Z,37.23
2022-08-05T14:28:28.970Z,36.23
2022-08-05T14:30:56.880Z,36.70
2022-08-05T14:33:24.228Z,38.52
2022-08-05T14:35:52.291Z,38.10
2022-08-05T14:38:32.426Z,38.17
2022-08-05T14:41:01.363Z,37.44
2022-08-05T14:43:59.342Z,39.19
2022-08-05T14:46:14.633Z,39.84
2022-08-05T14:48:41.433Z,39.89
2022-08-05T14:51:08.359Z,41.02
2022-08-05T14:53:44.154Z,41.82
2022-08-05T14:56:11.862Z,43.16
2022-08-05T14:58:47.914Z,43.02
2022-08-05T15:01:24.494Z,44.01
2022-08-05T15:04:09.938Z,45.21
2022-08-05T15:06:38.806Z,45.17
2022-08-05T15:09:07.211Z,45.56
2022-08-05T15:11:51.292Z,45.09
2022-08-05T15:14:35.115Z,45.08
2022-08-05T15:17:04.786Z,45.92
2022-08-05T15:19:32.027Z,46.42
2022-08-05T15:22:01.060Z,43.96
2022-08-05T15:24:28.384Z,46.48
2022-08-05T15:26:55.827Z,46.65
2022-08-05T15:29:22.814Z,46.27
2022-08-05T15:31:52.940Z,47.72
2022-08-05T15:34:32.938Z,67.08
2022-08-05T15:37:06.268Z,77.08
2022-08-05T15:40:58.219Z,77.31
2022-08-05T15:42:53.630Z,71.56
2022-08-05T15:45:14.755Z,76.71
2022-08-05T15:47:42.595Z,73.53
2022-08-05T15:50:15.472Z,74.71
2022-08-05T15:52:53.029Z,73.48
2022-08-05T15:55:24.691Z,67.84
2022-08-05T15:57:52.073Z,66.40
2022-08-05T16:00:26.278Z,63.55
2022-08-05T16:02:59.814Z,62.50
2022-08-05T16:05:28.437Z,58.89
2022-08-05T16:07:55.198Z,55.70
2022-08-05T16:10:25.622Z,56.25
2022-08-05T16:12:53.761Z,55.78
2022-08-05T16:15:23.521Z,52.33
2022-08-05T16:17:58.086Z,56.72
2022-08-05T16:20:28.974Z,56.55
2022-08-05T16:22:59.593Z,51.57
2022-08-05T16:25:33.828Z,48.68
2022-08-05T16:28:10.299Z,52.14
2022-08-05T16:30:37.914Z,50.37
2022-08-05T16:33:07.960Z,50.88
2022-08-05T16:35:42.173Z,50.06
2022-08-05T16:38:23.769Z,52.80
2022-08-05T16:41:00.858Z,56.69
2022-08-05T16:43:31.951Z,56.74
2022-08-05T16:46:05.057Z,58.97
2022-08-05T16:48:41.002Z,59.66
2022-08-05T16:51:12.621Z,60.89
2022-08-05T16:54:04.050Z,58.16
2022-08-05T16:56:36.525Z,55.52
2022-08-05T16:59:21.192Z,58.55
2022-08-05T17:01:54.997Z,56.34
2022-08-05T17:04:27.980Z,55.78
2022-08-05T17:07:01.709Z,57.21
2022-08-05T17:09:38.930Z,57.13
2022-08-05T17:12:18.374Z,59.14
2022-08-05T17:14:50.340Z,58.92
2022-08-05T17:17:20.337Z,59.49
2022-08-05T17:19:55.450Z,55.91
2022-08-05T17:22:26.047Z,58.62
2022-08-05T17:25:02.169Z,57.09
2022-08-05T17:27:38.075Z,56.63
2022-08-05T17:30:19.017Z,56.34
2022-08-05T17:33:01.686Z,56.19
2022-08-05T17:35:32.616Z,56.31
2022-08-05T17:38:18.850Z,59.00
2022-08-05T17:40:47.945Z,57.50
2022-08-05T17:43:46.562Z,58.56
2022-08-05T17:46:07.112Z,56.11
2022-08-05T17:48:39.712Z,58.26
2022-08-05T17:51:12.381Z,58.00
2022-08-05T17:53:42.672Z,58.94
2022-08-05T17:56:17.279Z,59.00
2022-08-05T17:58:45.204Z,57.98
2022-08-05T18:01:15.664Z,58.83
2022-08-05T18:04:04.482Z,58.41
2022-08-05T18:06:41.281Z,57.83
2022-08-05T18:09:18.684Z,60.54
2022-08-05T18:11:52.491Z,61.49
2022-08-05T18:14:20.614Z,62.18
2022-08-05T18:16:51.923Z,61.65
2022-08-05T18:19:22.911Z,63.85
2022-08-05T18:22:09.137Z,63.19
2022-08-05T18:24:41.130Z,64.40
2022-08-05T18:27:18.627Z,64.21
2022-08-05T18:29:53.465Z,63.72
2022-08-05T18:32:28.389Z,64.15
2022-08-05T18:35:01.173Z,64.98
2022-08-05T18:37:34.717Z,65.04
2022-08-05T18:40:34.365Z,63.88
2022-08-05T18:43:00.375Z,64.73
2022-08-05T18:45:40.884Z,65.45
2022-08-05T18:48:11.018Z,65.36
2022-08-05T18:50:57.280Z,66.58
2022-08-05T18:53:34.769Z,69.50
2022-08-05T18:56:12.414Z,69.08
2022-08-05T18:58:39.497Z,68.71
2022-08-05T19:01:09.639Z,67.59
2022-08-05T19:03:55.224Z,68.17
2022-08-05T19:06:34.372Z,67.24
2022-08-05T19:09:09.358Z,67.96
2022-08-05T19:11:59.607Z,67.80
2022-08-05T19:14:53.329Z,68.31
2022-08-05T19:17:12.937Z,68.50
2022-08-05T19:19:46.931Z,67.17
2022-08-05T19:22:17.123Z,67.38
2022-08-05T19:24:54.546Z,66.56
2022-08-05T19:27:27.750Z,67.19
2022-08-05T19:29:57.182Z,67.01
2022-08-05T19:32:26.216Z,66.70
2022-08-05T19:34:55.907Z,66.76
2022-08-05T19:37:35.331Z,66.89
2022-08-05T19:40:10.988Z,67.49
2022-08-05T19:42:38.811Z,70.01
2022-08-05T19:45:07.016Z,69.83
2022-08-05T19:47:34.947Z,68.53
2022-08-05T19:50:04.951Z,72.21
2022-08-05T19:52:34.197Z,68.15
2022-08-05T19:55:06.970Z,66.65
2022-08-05T19:58:19.646Z,65.75
2022-08-05T20:00:36.359Z,67.47
2022-08-05T20:03:05.274Z,68.07
2022-08-05T20:05:43.280Z,65.76
2022-08-05T20:08:16.441Z,67.63
2022-08-05T20:10:43.205Z,67.65
2022-08-05T20:13:10.891Z,69.80
2022-08-05T20:15:51.646Z,70.31
2022-08-05T20:18:33.721Z,74.70
2022-08-05T20:21:04.814Z,76.21
2022-08-05T20:23:40.384Z,76.99
2022-08-05T20:26:23.297Z,78.18
2022-08-05T20:28:55.949Z,78.56
2022-08-05T20:31:36.988Z,79.37
2022-08-05T20:34:10.534Z,78.28
2022-08-05T20:36:39.145Z,79.09
2022-08-05T20:39:10.340Z,80.10
2022-08-05T20:41:43.946Z,80.69
2022-08-05T20:44:17.422Z,83.35
2022-08-05T20:46:46.939Z,84.31
2022-08-05T20:49:13.952Z,85.30
2022-08-05T20:51:40.561Z,86.36
2022-08-05T20:54:07.227Z,87.87
2022-08-05T20:56:42.446Z,87.03
2022-08-05T20:59:15.915Z,86.20
2022-08-05T21:01:46.253Z,85.81
2022-08-05T21:04:13.617Z,86.34
2022-08-05T21:06:45.279Z,86.41
2022-08-05T21:09:12.681Z,85.82
2022-08-05T21:12:06.568Z,86.16
2022-08-05T21:14:27.596Z,86.59
2022-08-05T21:16:55.063Z,86.02
2022-08-05T21:19:21.593Z,85.31
2022-08-05T21:21:50.429Z,86.56
2022-08-05T21:24:19.744Z,85.47
2022-08-05T21:26:53.285Z,84.82
2022-08-05T21:29:26.344Z,84.44
2022-08-05T21:31:58.389Z,83.57
2022-08-05T21:34:24.965Z,83.79
2022-08-05T21:36:51.690Z,84.04
2022-08-05T21:39:26.733Z,82.81
2022-08-05T21:42:01.817Z,78.97
2022-08-05T21:44:29.331Z,76.66
2022-08-05T21:46:58.266Z,77.33
2022-08-05T21:49:48.485Z,75.89
2022-08-05T21:52:15.992Z,77.64
2022-08-05T21:54:54.833Z,74.72
2022-08-05T21:57:31.466Z,74.53
2022-08-05T22:00:11.306Z,74.99
2022-08-05T22:02:41.531Z,77.52
2022-08-05T22:05:09.255Z,76.92
2022-08-05T22:07:40.248Z,75.86
2022-08-05T22:10:26.512Z,74.98
2022-08-05T22:12:58.782Z,73.91
2022-08-05T22:16:00.918Z,75.37
2022-08-05T22:18:13.325Z,75.28
2022-08-05T22:20:41.646Z,75.71
2022-08-05T22:24:02.539Z,74.47
2022-08-05T22:26:53.659Z,73.80
2022-08-05T22:29:26.239Z,71.13
2022-08-05T22:31:55.154Z,71.96
2022-08-05T22:34:28.665Z,74.01
2022-08-05T22:36:58.430Z,71.95
2022-08-05T22:39:32.542Z,70.99
2022-08-05T22:42:09.591Z,73.68
2022-08-05T22:44:38.771Z,71.99
2022-08-05T22:47:06.030Z,70.16
2022-08-05T22:50:18.504Z,69.69
2022-08-05T22:52:32.293Z,68.69
2022-08-05T22:55:01.734Z,69.03
2022-08-05T22:57:36.167Z,66.07
2022-08-05T23:00:06.147Z,65.30
2022-08-05T23:02:35.281Z,64.28
2022-08-05T23:05:14.436Z,64.04
2022-08-05T23:07:45.010Z,62.79
2022-08-05T23:10:16.191Z,63.31
2022-08-05T23:12:47.924Z,62.37
2022-08-05T23:15:18.989Z,63.18
2022-08-05T23:18:00.761Z,63.83
2022-08-05T23:20:29.754Z,63.07
2022-08-05T23:22:56.619Z,61.77
2022-08-05T23:25:52.713Z,62.48
2022-08-05T23:28:12.365Z,61.76
2022-08-05T23:30:39.992Z,62.65
2022-08-05T23:33:16.513Z,61.90
2022-08-05T23:35:55.824Z,63.03
2022-08-05T23:38:24.199Z,62.56
2022-08-05T23:40:52.854Z,62.73
2022-08-05T23:43:24.841Z,61.46
2022-08-05T23:46:03.484Z,63.00
2022-08-05T23:48:30.017Z,62.11
2022-08-05T23:50:56.516Z,61.17
2022-08-05T23:53:28.571Z,61.98
2022-08-05T23:56:11.760Z,61.93
2022-08-05T23:58:38.521Z,62.25
